createdAt,value
2019-05-06T00:01:37.583Z,100562.47
2019-05-06T00:04:10.172Z,100562.26
2019-05-06T00:06:44.000Z,100558.08
2019-05-06T00:09:16.735Z,100553.20
2019-05-06T00:11:49.771Z,100550.91
2019-05-06T00:14:23.538Z,100545.72
2019-05-06T00:16:58.627Z,100549.48
2019-05-06T00:19:31.340Z,100549.41
2019-05-06T00:22:04.722Z,100547.95
2019-05-06T00:24:48.031Z,100546.61
2019-05-06T00:27:29.138Z,100547.81
2019-05-06T00:30:04.493Z,100546.06
2019-05-06T00:32:37.315Z,100544.73
2019-05-06T00:35:10.956Z,100549.48
2019-05-06T00:37:44.225Z,100546.86
2019-05-06T00:40:26.091Z,100549.91
2019-05-06T00:43:01.948Z,100545.00
2019-05-06T00:45:34.522Z,100543.70
2019-05-06T00:48:07.268Z,100546.52
2019-05-06T00:50:39.784Z,100545.09
2019-05-06T00:53:19.247Z,100548.38
2019-05-06T00:55:53.670Z,100549.05
2019-05-06T00:58:26.332Z,100549.42
2019-05-06T01:00:59.619Z,100548.84
2019-05-06T01:03:34.508Z,100548.64
2019-05-06T01:06:07.387Z,100550.59
2019-05-06T01:08:40.183Z,100556.00
2019-05-06T01:11:14.417Z,100552.39
2019-05-06T01:13:57.044Z,100550.63
2019-05-06T01:16:29.859Z,100554.97
2019-05-06T01:19:04.533Z,100554.77
2019-05-06T01:21:37.621Z,100553.99
2019-05-06T01:24:10.264Z,100554.92
2019-05-06T01:26:44.301Z,100557.09
2019-05-06T01:29:16.923Z,100553.05
2019-05-06T01:31:51.019Z,100553.54
2019-05-06T01:34:24.533Z,100554.41
2019-05-06T01:36:59.315Z,100552.52
2019-05-06T01:39:51.578Z,100549.30
2019-05-06T01:42:48.698Z,100555.97
2019-05-06T01:45:21.282Z,100556.94
2019-05-06T01:47:54.439Z,100557.34
2019-05-06T01:50:27.069Z,100562.77
2019-05-06T01:53:00.188Z,100560.90
2019-05-06T01:55:34.300Z,100565.73
2019-05-06T01:58:07.308Z,100559.77
2019-05-06T02:00:39.795Z,100565.64
2019-05-06T02:03:14.826Z,100565.63
2019-05-06T02:05:47.678Z,100563.30
2019-05-06T02:08:20.227Z,100566.92
2019-05-06T02:10:54.545Z,100567.52
2019-05-06T02:13:27.251Z,100560.27
2019-05-06T02:15:59.760Z,100560.44
2019-05-06T02:18:33.968Z,100560.53
2019-05-06T02:21:13.858Z,100553.25
2019-05-06T02:23:53.937Z,100561.69
2019-05-06T02:26:26.590Z,100558.30
2019-05-06T02:29:04.817Z,100557.80
2019-05-06T02:31:45.952Z,100553.38
2019-05-06T02:34:26.223Z,100555.87
2019-05-06T02:37:07.347Z,100555.20
2019-05-06T02:39:39.871Z,100559.18
2019-05-06T02:42:13.135Z,100560.19
2019-05-06T02:44:45.850Z,100559.03
2019-05-06T02:47:42.754Z,100562.56
2019-05-06T02:50:18.937Z,100562.02
2019-05-06T02:52:53.838Z,100564.36
2019-05-06T02:55:26.835Z,100564.42
2019-05-06T02:58:02.779Z,100559.33
2019-05-06T03:00:35.751Z,100556.48
2019-05-06T03:03:33.774Z,100560.52
2019-05-06T03:06:07.371Z,100561.44
2019-05-06T03:08:39.864Z,100561.25
2019-05-06T03:11:13.561Z,100560.50
2019-05-06T03:13:46.864Z,100557.69
2019-05-06T03:16:19.899Z,100556.53
2019-05-06T03:18:53.818Z,100551.50
2019-05-06T03:21:44.832Z,100548.12
2019-05-06T03:24:24.557Z,100544.49
2019-05-06T03:26:59.620Z,100538.36
2019-05-06T03:29:33.618Z,100541.05
2019-05-06T03:32:07.840Z,100537.41
2019-05-06T03:35:01.416Z,100548.48
2019-05-06T03:37:53.254Z,100546.05
2019-05-06T03:40:26.339Z,100546.14
2019-05-06T03:42:58.963Z,100549.83
2019-05-06T03:45:53.497Z,100548.64
2019-05-06T03:48:29.567Z,100550.19
2019-05-06T03:51:04.180Z,100555.70
2019-05-06T03:53:39.001Z,100549.03
2019-05-06T03:56:16.838Z,100555.59
2019-05-06T03:58:53.672Z,100552.63
2019-05-06T04:01:26.795Z,100557.22
2019-05-06T04:03:59.506Z,100557.20
2019-05-06T04:06:33.464Z,100552.09
2019-05-06T04:09:06.820Z,100553.88
2019-05-06T04:11:39.823Z,100549.31
2019-05-06T04:14:13.962Z,100548.00
2019-05-06T04:16:56.892Z,100550.83
2019-05-06T04:19:37.091Z,100548.77
2019-05-06T04:22:15.430Z,100554.24
2019-05-06T04:24:59.258Z,100554.47
2019-05-06T04:27:38.132Z,100556.44
2019-05-06T04:30:13.903Z,100559.86
2019-05-06T04:32:47.195Z,100559.39
2019-05-06T04:35:22.752Z,100557.95
2019-05-06T04:37:55.790Z,100558.13
2019-05-06T04:40:28.344Z,100562.16
2019-05-06T04:43:03.571Z,100558.56
2019-05-06T04:45:37.208Z,100559.17
2019-05-06T04:48:14.458Z,100556.72
2019-05-06T04:50:49.347Z,100565.09
2019-05-06T04:53:23.813Z,100560.53
2019-05-06T04:56:03.915Z,100563.11
2019-05-06T04:58:39.471Z,100566.83
2019-05-06T05:01:15.677Z,100563.79
2019-05-06T05:03:48.752Z,100564.60
2019-05-06T05:06:23.084Z,100562.56
2019-05-06T05:08:56.388Z,100564.24
2019-05-06T05:11:42.339Z,100560.25
2019-05-06T05:14:25.914Z,100564.02
2019-05-06T05:17:07.560Z,100566.06
2019-05-06T05:19:42.780Z,100566.10
2019-05-06T05:22:16.346Z,100567.59
2019-05-06T05:24:52.088Z,100571.06
2019-05-06T05:27:24.744Z,100573.63
2019-05-06T05:29:57.384Z,100571.95
2019-05-06T05:32:32.098Z,100575.89
2019-05-06T05:35:05.515Z,100581.27
2019-05-06T05:37:41.953Z,100582.87
2019-05-06T05:40:17.297Z,100585.19
2019-05-06T05:43:02.913Z,100584.97
2019-05-06T05:45:37.749Z,100583.50
2019-05-06T05:48:34.983Z,100584.08
2019-05-06T05:51:07.787Z,100581.39
2019-05-06T05:53:42.475Z,100587.54
2019-05-06T05:56:15.413Z,100589.30
2019-05-06T05:58:48.898Z,100589.08
2019-05-06T06:01:23.257Z,100586.27
2019-05-06T06:03:58.696Z,100585.47
2019-05-06T06:06:33.146Z,100589.27
2019-05-06T06:09:07.579Z,100589.74
2019-05-06T06:11:48.660Z,100584.45
2019-05-06T06:14:55.760Z,100583.99
2019-05-06T06:17:49.071Z,100574.58
2019-05-06T06:20:29.662Z,100561.19
2019-05-06T06:23:17.707Z,100572.38
2019-05-06T06:25:52.936Z,100584.25
2019-05-06T06:28:28.737Z,100583.80
2019-05-06T06:31:24.048Z,100588.42
2019-05-06T06:34:02.390Z,100590.03
2019-05-06T06:36:45.142Z,100588.65
2019-05-06T06:39:22.866Z,100592.50
2019-05-06T06:41:58.490Z,100599.42
2019-05-06T06:44:34.303Z,100600.22
2019-05-06T06:47:06.894Z,100591.94
2019-05-06T06:49:43.136Z,100581.73
2019-05-06T06:52:23.181Z,100587.88
2019-05-06T06:54:56.588Z,100579.66
2019-05-06T06:57:42.379Z,100582.05
2019-05-06T07:00:39.302Z,100581.02
2019-05-06T07:03:17.697Z,100583.48
2019-05-06T07:06:12.680Z,100578.60
2019-05-06T07:09:02.700Z,100583.91
2019-05-06T07:11:35.728Z,100579.55
2019-05-06T07:14:10.811Z,100582.31
2019-05-06T07:16:45.261Z,100581.52
2019-05-06T07:19:26.621Z,100581.48
2019-05-06T07:21:59.290Z,100581.23
2019-05-06T07:24:32.434Z,100582.23
2019-05-06T07:27:13.482Z,100585.17
2019-05-06T07:29:48.696Z,100586.44
2019-05-06T07:32:23.173Z,100585.94
2019-05-06T07:34:56.947Z,100585.63
2019-05-06T07:37:29.771Z,100592.66
2019-05-06T07:40:04.938Z,100596.08
2019-05-06T07:42:45.974Z,100593.22
2019-05-06T07:45:30.084Z,100591.84
2019-05-06T07:48:06.167Z,100592.64
2019-05-06T07:50:49.166Z,100598.70
2019-05-06T07:53:22.481Z,100604.75
2019-05-06T07:55:55.819Z,100594.25
2019-05-06T07:58:28.595Z,100592.73
2019-05-06T08:03:23.239Z,100589.75
2019-05-06T08:05:58.819Z,100588.88
2019-05-06T08:08:33.509Z,100587.78
2019-05-06T08:11:06.381Z,100588.38
2019-05-06T08:13:43.249Z,100584.78
2019-05-06T08:16:16.271Z,100583.02
2019-05-06T08:18:49.126Z,100583.41
2019-05-06T08:21:26.617Z,100577.44
2019-05-06T08:23:59.422Z,100582.13
2019-05-06T08:26:32.350Z,100570.23
2019-05-06T08:29:05.319Z,100560.48
2019-05-06T08:31:38.629Z,100565.67
2019-05-06T08:34:12.255Z,100564.14
2019-05-06T08:37:02.491Z,100557.81
2019-05-06T08:39:36.313Z,100558.66
2019-05-06T08:42:13.957Z,100559.41
2019-05-06T08:44:46.708Z,100558.56
2019-05-06T08:47:19.363Z,100558.38
2019-05-06T08:50:05.640Z,100552.47
2019-05-06T08:52:45.690Z,100558.16
2019-05-06T08:55:27.193Z,100564.33
2019-05-06T08:58:02.733Z,100563.52
2019-05-06T09:00:45.426Z,100566.10
2019-05-06T09:03:18.198Z,100563.38
2019-05-06T09:05:53.256Z,100562.86
2019-05-06T09:08:26.193Z,100559.88
2019-05-06T09:10:58.806Z,100559.62
2019-05-06T09:13:32.654Z,100555.17
2019-05-06T09:16:08.340Z,100544.35
2019-05-06T09:18:42.795Z,100549.16
2019-05-06T09:21:17.449Z,100549.56
2019-05-06T09:23:52.902Z,100554.63
2019-05-06T09:26:37.235Z,100547.86
2019-05-06T09:29:17.641Z,100552.25
2019-05-06T09:31:52.975Z,100550.33
2019-05-06T09:34:39.156Z,100548.23
2019-05-06T09:37:14.116Z,100541.13
2019-05-06T09:39:47.315Z,100541.42
2019-05-06T09:42:23.206Z,100552.34
2019-05-06T09:44:57.513Z,100553.88
2019-05-06T09:47:37.400Z,100553.95
2019-05-06T09:50:12.914Z,100555.06
2019-05-06T09:52:45.737Z,100552.49
2019-05-06T09:55:26.388Z,100551.75
2019-05-06T09:58:03.518Z,100551.23
2019-05-06T10:00:42.930Z,100552.27
2019-05-06T10:03:17.464Z,100556.33
2019-05-06T10:05:53.122Z,100551.48
2019-05-06T10:08:28.303Z,100550.20
2019-05-06T10:11:02.913Z,100545.73
2019-05-06T10:13:36.883Z,100541.60
2019-05-06T10:16:09.658Z,100551.05
2019-05-06T10:18:43.135Z,100541.77
2019-05-06T10:21:17.020Z,100544.14
2019-05-06T10:23:52.807Z,100543.23
2019-05-06T10:26:32.598Z,100545.67
2019-05-06T10:29:27.007Z,100544.15
2019-05-06T10:32:23.181Z,100541.41
2019-05-06T10:35:05.850Z,100542.39
2019-05-06T10:38:13.436Z,100534.33
2019-05-06T10:41:00.869Z,100532.10
2019-05-06T10:43:59.150Z,100536.09
2019-05-06T10:46:33.491Z,100530.67
2019-05-06T10:49:08.395Z,100538.03
2019-05-06T10:51:53.009Z,100533.61
2019-05-06T10:54:27.559Z,100527.87
2019-05-06T10:57:12.529Z,100522.78
2019-05-06T10:59:45.310Z,100519.82
2019-05-06T11:02:43.723Z,100515.02
2019-05-06T11:05:20.454Z,100509.97
2019-05-06T11:07:58.115Z,100505.51
2019-05-06T11:10:40.020Z,100500.02
2019-05-06T11:13:18.753Z,100497.59
2019-05-06T11:15:56.532Z,100493.90
2019-05-06T11:18:34.250Z,100499.41
2019-05-06T11:21:18.668Z,100530.77
2019-05-06T11:23:53.644Z,100510.39
2019-05-06T11:26:29.840Z,100513.65
2019-05-06T11:29:27.912Z,100513.11
2019-05-06T11:32:17.928Z,100506.88
2019-05-06T11:35:03.782Z,100510.74
2019-05-06T11:38:12.017Z,100509.01
2019-05-06T11:40:52.917Z,100506.50
2019-05-06T11:43:32.511Z,100506.22
2019-05-06T11:46:33.397Z,100511.43
2019-05-06T11:49:07.934Z,100508.44
2019-05-06T11:51:43.904Z,100513.33
2019-05-06T11:54:20.863Z,100505.37
2019-05-06T11:56:58.730Z,100502.07
2019-05-06T11:59:36.717Z,100503.59
2019-05-06T12:02:14.625Z,100503.08
2019-05-06T12:04:52.811Z,100500.11
2019-05-06T12:07:26.729Z,100502.96
2019-05-06T12:10:06.454Z,100497.47
2019-05-06T12:12:39.146Z,100496.09
2019-05-06T12:15:19.861Z,100497.80
2019-05-06T12:17:55.612Z,100495.91
2019-05-06T12:20:32.947Z,100499.79
2019-05-06T12:23:07.757Z,100501.11
2019-05-06T12:25:40.254Z,100500.02
2019-05-06T12:28:12.706Z,100506.73
2019-05-06T12:30:45.577Z,100504.23
2019-05-06T12:33:38.012Z,100502.51
2019-05-06T12:36:19.719Z,100504.52
2019-05-06T12:39:06.305Z,100512.90
2019-05-06T12:42:04.588Z,100515.37
2019-05-06T12:45:13.041Z,100518.95
2019-05-06T12:48:08.111Z,100507.63
2019-05-06T12:50:43.071Z,100509.23
2019-05-06T12:53:16.912Z,100502.94
2019-05-06T12:55:54.867Z,100498.94
2019-05-06T12:58:27.963Z,100500.95
2019-05-06T13:01:04.008Z,100499.32
2019-05-06T13:03:38.624Z,100507.42
2019-05-06T13:06:12.955Z,100501.78
2019-05-06T13:08:58.813Z,100498.59
2019-05-06T13:11:34.017Z,100501.13
2019-05-06T13:14:10.048Z,100495.38
2019-05-06T13:16:44.065Z,100490.38
2019-05-06T13:19:18.049Z,100490.42
2019-05-06T13:21:54.918Z,100497.09
2019-05-06T13:24:28.541Z,100488.93
2019-05-06T13:27:05.444Z,100482.89
2019-05-06T13:29:38.072Z,100489.27
2019-05-06T13:32:20.608Z,100486.81
2019-05-06T13:34:58.937Z,100489.20
2019-05-06T13:37:33.624Z,100490.38
2019-05-06T13:40:08.631Z,100484.38
2019-05-06T13:43:33.057Z,100485.13
2019-05-06T13:46:15.251Z,100478.41
2019-05-06T13:49:15.547Z,100478.16
2019-05-06T13:52:04.244Z,100485.70
2019-05-06T13:54:41.962Z,100470.28
2019-05-06T13:57:15.548Z,100468.30
2019-05-06T13:59:48.247Z,100462.56
2019-05-06T14:02:26.565Z,100462.59
2019-05-06T14:05:02.757Z,100454.65
2019-05-06T14:07:36.880Z,100459.45
2019-05-06T14:10:12.997Z,100457.77
2019-05-06T14:12:47.260Z,100452.23
2019-05-06T14:15:23.232Z,100454.52
2019-05-06T14:18:02.741Z,100450.90
2019-05-06T14:20:36.409Z,100453.59
2019-05-06T14:23:12.591Z,100446.77
2019-05-06T14:26:04.334Z,100462.38
2019-05-06T14:28:44.467Z,100447.64
2019-05-06T14:31:25.400Z,100442.61
2019-05-06T14:33:59.503Z,100437.25
2019-05-06T14:36:33.502Z,100439.78
2019-05-06T14:39:17.462Z,100431.55
2019-05-06T14:41:53.666Z,100428.17
2019-05-06T14:44:26.968Z,100425.81
2019-05-06T14:47:08.531Z,100424.44
2019-05-06T14:49:43.442Z,100422.91
2019-05-06T14:52:18.510Z,100423.55
2019-05-06T14:54:55.800Z,100423.28
2019-05-06T14:57:29.121Z,100420.16
2019-05-06T15:00:07.799Z,100423.46
2019-05-06T15:02:43.552Z,100422.36
2019-05-06T15:05:17.763Z,100425.20
2019-05-06T15:07:56.040Z,100424.75
2019-05-06T15:10:29.388Z,100414.03
2019-05-06T15:13:04.426Z,100415.56
2019-05-06T15:15:37.437Z,100416.27
2019-05-06T15:18:12.566Z,100409.16
2019-05-06T15:20:47.800Z,100410.61
2019-05-06T15:23:22.746Z,100405.88
2019-05-06T15:25:56.748Z,100416.48
2019-05-06T15:28:29.347Z,100415.97
2019-05-06T15:31:14.590Z,100430.98
2019-05-06T15:33:52.936Z,100444.58
2019-05-06T15:36:33.963Z,100460.73
2019-05-06T15:39:07.741Z,100454.73
2019-05-06T15:41:42.719Z,100465.13
2019-05-06T15:44:16.399Z,100477.55
2019-05-06T15:46:49.225Z,100471.42
2019-05-06T15:49:22.430Z,100470.48
2019-05-06T15:51:56.500Z,100468.06
2019-05-06T15:54:32.241Z,100472.55
2019-05-06T15:57:11.521Z,100477.00
2019-05-06T15:59:47.480Z,100478.23
2019-05-06T16:02:23.144Z,100474.51
2019-05-06T16:04:57.653Z,100478.69
2019-05-06T16:07:37.009Z,100474.72
2019-05-06T16:10:13.280Z,100477.13
2019-05-06T16:12:49.099Z,100477.58
2019-05-06T16:15:24.478Z,100467.87
2019-05-06T16:17:57.813Z,100462.98
2019-05-06T16:20:33.145Z,100467.59
2019-05-06T16:23:15.986Z,100461.78
2019-05-06T16:25:52.487Z,100467.42
2019-05-06T16:28:27.141Z,100465.52
2019-05-06T16:30:59.724Z,100461.75
2019-05-06T16:33:33.501Z,100460.80
2019-05-06T16:36:07.686Z,100458.54
2019-05-06T16:38:42.936Z,100459.08
2019-05-06T16:41:16.296Z,100454.13
2019-05-06T16:43:52.586Z,100449.56
2019-05-06T16:46:26.233Z,100447.27
2019-05-06T16:48:58.890Z,100446.14
2019-05-06T16:51:33.546Z,100446.44
2019-05-06T16:54:07.805Z,100449.08
2019-05-06T16:56:49.689Z,100439.56
2019-05-06T16:59:23.818Z,100441.95
2019-05-06T17:01:58.657Z,100442.19
2019-05-06T17:04:42.813Z,100441.01
2019-05-06T17:07:22.166Z,100440.83
2019-05-06T17:09:55.324Z,100438.35
2019-05-06T17:12:32.665Z,100437.90
2019-05-06T17:15:07.795Z,100442.32
2019-05-06T17:17:46.755Z,100437.47
2019-05-06T17:20:20.256Z,100435.78
2019-05-06T17:22:53.704Z,100434.81
2019-05-06T17:25:27.539Z,100435.06
2019-05-06T17:28:22.275Z,100437.13
2019-05-06T17:31:14.556Z,100437.64
2019-05-06T17:34:06.594Z,100435.06
2019-05-06T17:36:43.427Z,100436.44
2019-05-06T17:39:16.208Z,100434.08
2019-05-06T17:41:52.472Z,100430.16
2019-05-06T17:44:28.047Z,100430.53
2019-05-06T17:47:12.220Z,100431.50
2019-05-06T17:49:52.873Z,100437.16
2019-05-06T17:52:26.997Z,100441.64
2019-05-06T17:55:02.889Z,100436.75
2019-05-06T17:57:36.240Z,100434.88
2019-05-06T18:00:17.625Z,100438.30
2019-05-06T18:02:52.650Z,100436.08
2019-05-06T18:05:32.347Z,100437.23
2019-05-06T18:08:09.733Z,100439.02
2019-05-06T18:10:42.747Z,100435.27
2019-05-06T18:13:16.089Z,100431.56
2019-05-06T18:15:53.023Z,100431.41
2019-05-06T18:18:28.843Z,100430.03
2019-05-06T18:21:03.389Z,100429.63
2019-05-06T18:23:37.189Z,100420.64
2019-05-06T18:26:10.755Z,100426.45
2019-05-06T18:28:45.477Z,100420.17
2019-05-06T18:31:19.558Z,100419.67
2019-05-06T18:33:59.198Z,100419.17
2019-05-06T18:36:37.389Z,100416.69
2019-05-06T18:39:18.108Z,100418.20
2019-05-06T18:41:54.566Z,100424.16
2019-05-06T18:44:37.198Z,100422.58
2019-05-06T18:47:18.434Z,100422.48
2019-05-06T18:49:52.476Z,100421.42
2019-05-06T18:52:29.512Z,100426.36
2019-05-06T18:55:06.332Z,100426.38
2019-05-06T18:57:55.248Z,100421.40
2019-05-06T19:00:32.017Z,100430.78
2019-05-06T19:03:05.949Z,100433.50
2019-05-06T19:05:39.664Z,100434.33
2019-05-06T19:08:34.845Z,100439.25
2019-05-06T19:13:53.170Z,100447.11
2019-05-06T19:16:27.267Z,100451.80
2019-05-06T19:19:03.685Z,100456.55
2019-05-06T19:21:39.823Z,100464.73
2019-05-06T19:24:16.118Z,100460.10
2019-05-06T19:26:48.840Z,100468.42
2019-05-06T19:29:23.225Z,100467.77
2019-05-06T19:31:56.954Z,100469.05
2019-05-06T19:34:34.576Z,100469.44
2019-05-06T19:37:10.439Z,100476.48
2019-05-06T19:39:44.425Z,100469.92
2019-05-06T19:42:22.408Z,100470.53
2019-05-06T19:44:57.288Z,100468.34
2019-05-06T19:47:31.942Z,100470.89
2019-05-06T19:50:06.606Z,100466.20
2019-05-06T19:52:52.793Z,100470.22
2019-05-06T19:55:25.749Z,100471.62
2019-05-06T19:58:02.190Z,100475.20
2019-05-06T20:00:46.194Z,100476.21
2019-05-06T20:03:23.247Z,100478.70
2019-05-06T20:06:33.865Z,100472.55
2019-05-06T20:09:14.652Z,100472.70
2019-05-06T20:11:51.927Z,100468.81
2019-05-06T20:14:31.013Z,100464.83
2019-05-06T20:17:04.246Z,100475.48
2019-05-06T20:19:42.597Z,100474.82
2019-05-06T20:22:15.318Z,100475.39
2019-05-06T20:24:52.052Z,100478.48
2019-05-06T20:27:25.708Z,100473.90
2019-05-06T20:29:59.413Z,100473.30
2019-05-06T20:32:32.306Z,100467.31
2019-05-06T20:35:07.737Z,100466.72
2019-05-06T20:37:45.037Z,100467.81
2019-05-06T20:40:18.795Z,100468.43
2019-05-06T20:42:51.360Z,100472.80
2019-05-06T20:45:25.648Z,100468.55
2019-05-06T20:47:59.010Z,100476.71
2019-05-06T20:50:32.791Z,100474.33
2019-05-06T20:53:05.416Z,100469.31
2019-05-06T20:55:39.367Z,100471.02
2019-05-06T20:58:12.761Z,100472.90
2019-05-06T21:00:47.363Z,100475.16
2019-05-06T21:03:21.939Z,100476.81
2019-05-06T21:05:54.764Z,100477.37
2019-05-06T21:08:27.427Z,100478.54
2019-05-06T21:11:00.308Z,100475.94
2019-05-06T21:13:38.614Z,100471.04
2019-05-06T21:16:17.005Z,100471.31
2019-05-06T21:18:49.528Z,100469.66
2019-05-06T21:21:23.100Z,100471.92
2019-05-06T21:23:55.692Z,100465.87
2019-05-06T21:26:28.536Z,100464.64
2019-05-06T21:29:03.469Z,100467.94
2019-05-06T21:31:36.090Z,100461.98
2019-05-06T21:34:08.596Z,100461.53
2019-05-06T21:36:42.285Z,100468.61
2019-05-06T21:39:15.049Z,100465.62
2019-05-06T21:41:47.600Z,100461.32
2019-05-06T21:44:22.876Z,100462.30
2019-05-06T21:46:57.447Z,100461.31
2019-05-06T21:49:32.704Z,100465.61
2019-05-06T21:52:09.821Z,100463.11
2019-05-06T21:54:43.540Z,100463.48
2019-05-06T21:57:16.170Z,100462.11
2019-05-06T21:59:55.703Z,100458.48
2019-05-06T22:02:32.719Z,100460.89
2019-05-06T22:05:08.850Z,100461.83
2019-05-06T22:07:45.315Z,100461.16
2019-05-06T22:10:17.864Z,100460.13
2019-05-06T22:12:52.573Z,100459.37
2019-05-06T22:15:26.243Z,100456.94
2019-05-06T22:17:59.715Z,100451.22
2019-05-06T22:21:08.742Z,100449.13
2019-05-06T22:23:46.777Z,100449.90
2019-05-06T22:26:23.147Z,100446.48
2019-05-06T22:28:56.855Z,100447.70
2019-05-06T22:31:29.430Z,100450.08
2019-05-06T22:34:03.060Z,100450.29
2019-05-06T22:36:36.914Z,100450.23
2019-05-06T22:39:11.860Z,100448.69
2019-05-06T22:41:44.439Z,100445.16
2019-05-06T22:44:17.557Z,100448.79
2019-05-06T22:46:50.816Z,100449.50
2019-05-06T22:49:27.477Z,100445.09
2019-05-06T22:52:02.898Z,100447.70
2019-05-06T22:54:38.743Z,100443.94
2019-05-06T22:57:12.099Z,100443.45
2019-05-06T22:59:44.812Z,100443.33
2019-05-06T23:02:32.141Z,100445.65
2019-05-06T23:05:13.080Z,100449.88
2019-05-06T23:07:45.687Z,100450.05
2019-05-06T23:10:18.508Z,100448.77
2019-05-06T23:12:52.322Z,100453.04
2019-05-06T23:15:25.370Z,100447.02
2019-05-06T23:17:57.870Z,100451.16
2019-05-06T23:20:32.119Z,100446.55
2019-05-06T23:23:05.035Z,100441.29
2019-05-06T23:25:37.665Z,100448.97
2019-05-06T23:28:12.055Z,100453.27
2019-05-06T23:30:44.659Z,100452.00
2019-05-06T23:33:17.265Z,100451.18
2019-05-06T23:35:51.496Z,100454.56
2019-05-06T23:38:47.197Z,100451.25
2019-05-06T23:41:42.349Z,100450.66
2019-05-06T23:44:45.782Z,100441.08
2019-05-06T23:47:42.244Z,100437.71
2019-05-06T23:50:37.215Z,100436.77
2019-05-06T23:53:32.593Z,100440.23
2019-05-06T23:56:27.670Z,100437.05
2019-05-06T23:59:01.211Z,100437.66
